createdAt,value
2019-01-30T00:00:10.772Z,78.78
2019-01-30T00:02:43.303Z,78.87
2019-01-30T00:05:14.338Z,78.49
2019-01-30T00:07:45.072Z,78.56
2019-01-30T00:10:16.158Z,78.49
2019-01-30T00:12:47.247Z,78.26
2019-01-30T00:15:18.558Z,78.30
2019-01-30T00:17:49.353Z,78.34
2019-01-30T00:20:20.321Z,77.99
2019-01-30T00:22:51.246Z,76.88
2019-01-30T00:25:23.987Z,77.80
2019-01-30T00:27:54.934Z,77.34
2019-01-30T00:30:26.452Z,76.88
2019-01-30T00:32:57.413Z,76.67
2019-01-30T00:35:28.397Z,76.31
2019-01-30T00:37:59.229Z,76.89
2019-01-30T00:40:30.315Z,75.90
2019-01-30T00:43:01.086Z,77.08
2019-01-30T00:45:31.963Z,76.85
2019-01-30T00:48:02.850Z,76.20
2019-01-30T00:50:33.828Z,76.68
2019-01-30T00:53:04.924Z,77.23
2019-01-30T00:55:36.298Z,77.29
2019-01-30T00:58:07.340Z,77.78
2019-01-30T01:00:38.415Z,77.89
2019-01-30T01:03:09.303Z,77.63
2019-01-30T01:05:40.160Z,76.95
2019-01-30T01:08:10.978Z,75.70
2019-01-30T01:10:42.377Z,75.98
2019-01-30T01:13:14.617Z,76.41
2019-01-30T01:15:45.689Z,76.23
2019-01-30T01:18:17.589Z,76.11
2019-01-30T01:20:48.864Z,75.69
2019-01-30T01:23:19.881Z,75.60
2019-01-30T01:25:50.786Z,76.45
2019-01-30T01:28:21.657Z,76.55
2019-01-30T01:30:52.642Z,77.78
2019-01-30T01:33:24.973Z,77.93
2019-01-30T01:35:56.034Z,77.04
2019-01-30T01:38:27.131Z,76.09
2019-01-30T01:40:58.037Z,76.97
2019-01-30T01:43:28.923Z,76.85
2019-01-30T01:45:59.849Z,76.88
2019-01-30T01:48:30.515Z,77.17
2019-01-30T01:51:01.517Z,76.92
2019-01-30T01:53:32.390Z,77.42
2019-01-30T01:56:03.470Z,77.29
2019-01-30T01:58:34.355Z,77.47
2019-01-30T02:01:05.357Z,74.84
2019-01-30T02:03:36.244Z,75.65
2019-01-30T02:06:07.396Z,76.42
2019-01-30T02:08:38.315Z,75.90
2019-01-30T02:11:09.333Z,75.38
2019-01-30T02:13:40.119Z,75.09
2019-01-30T02:16:10.998Z,74.07
2019-01-30T02:18:42.066Z,74.03
2019-01-30T02:21:13.063Z,74.01
2019-01-30T02:23:45.071Z,74.12
2019-01-30T02:26:15.981Z,74.26
2019-01-30T02:28:46.759Z,74.22
2019-01-30T02:31:18.188Z,74.20
2019-01-30T02:33:49.031Z,74.51
2019-01-30T02:36:20.038Z,74.85
2019-01-30T02:38:50.824Z,75.01
2019-01-30T02:41:21.888Z,75.86
2019-01-30T02:43:52.680Z,75.61
2019-01-30T02:46:23.758Z,75.90
2019-01-30T02:48:54.582Z,75.62
2019-01-30T02:51:25.886Z,76.46
2019-01-30T02:53:57.765Z,76.69
2019-01-30T02:56:28.745Z,76.66
2019-01-30T02:58:59.643Z,76.45
2019-01-30T03:01:30.751Z,76.26
2019-01-30T03:04:01.540Z,76.63
2019-01-30T03:06:32.651Z,76.65
2019-01-30T03:09:03.781Z,76.97
2019-01-30T03:11:36.016Z,76.72
2019-01-30T03:14:07.035Z,76.75
2019-01-30T03:16:38.314Z,76.11
2019-01-30T03:19:09.313Z,76.85
2019-01-30T03:21:40.458Z,76.93
2019-01-30T03:24:11.401Z,77.34
2019-01-30T03:26:42.378Z,77.38
2019-01-30T03:29:13.158Z,77.76
2019-01-30T03:31:44.159Z,78.26
2019-01-30T03:34:14.853Z,78.66
2019-01-30T03:36:45.751Z,79.17
2019-01-30T03:39:16.526Z,78.96
2019-01-30T03:41:47.412Z,79.07
2019-01-30T03:44:18.280Z,79.22
2019-01-30T03:46:49.329Z,79.19
2019-01-30T03:49:20.445Z,79.06
2019-01-30T03:51:51.459Z,78.92
2019-01-30T03:54:22.344Z,79.46
2019-01-30T03:56:53.352Z,79.44
2019-01-30T03:59:24.218Z,79.76
2019-01-30T04:01:55.234Z,79.06
2019-01-30T04:04:26.016Z,79.31
2019-01-30T04:06:57.100Z,79.94
2019-01-30T04:09:27.989Z,80.43
2019-01-30T04:11:58.966Z,80.23
2019-01-30T04:14:29.859Z,79.78
2019-01-30T04:17:00.798Z,80.10
2019-01-30T04:19:31.752Z,79.94
2019-01-30T04:22:02.740Z,79.60
2019-01-30T04:24:33.634Z,79.57
2019-01-30T04:27:04.612Z,79.64
2019-01-30T04:29:35.482Z,79.25
2019-01-30T04:32:06.759Z,78.91
2019-01-30T04:34:37.591Z,78.96
2019-01-30T04:37:08.711Z,78.92
2019-01-30T04:39:39.657Z,78.63
2019-01-30T04:42:10.704Z,78.65
2019-01-30T04:44:41.642Z,78.66
2019-01-30T04:47:12.605Z,79.11
2019-01-30T04:49:43.510Z,79.41
2019-01-30T04:52:14.490Z,79.60
2019-01-30T04:54:45.187Z,79.88
2019-01-30T04:57:16.191Z,79.60
2019-01-30T04:59:46.963Z,79.43
2019-01-30T05:02:18.038Z,79.73
2019-01-30T05:04:48.940Z,79.97
2019-01-30T05:07:20.394Z,79.71
2019-01-30T05:09:51.349Z,79.47
2019-01-30T05:12:22.349Z,80.96
2019-01-30T05:14:53.201Z,80.81
2019-01-30T05:17:24.251Z,81.37
2019-01-30T05:19:54.804Z,81.79
2019-01-30T05:22:26.210Z,82.11
2019-01-30T05:24:56.762Z,82.20
2019-01-30T05:27:27.463Z,81.92
2019-01-30T05:29:58.011Z,81.55
2019-01-30T05:32:28.631Z,81.45
2019-01-30T05:34:59.231Z,81.45
2019-01-30T05:37:30.017Z,81.75
2019-01-30T05:40:00.967Z,80.76
2019-01-30T05:42:31.978Z,80.52
2019-01-30T05:45:02.514Z,80.21
2019-01-30T05:47:33.198Z,80.15
2019-01-30T05:50:03.871Z,80.06
2019-01-30T05:52:34.545Z,80.34
2019-01-30T05:55:06.225Z,80.61
2019-01-30T05:57:37.069Z,79.09
2019-01-30T06:00:12.262Z,78.07
2019-01-30T06:02:43.173Z,76.86
2019-01-30T06:05:13.929Z,76.07
2019-01-30T06:07:44.627Z,75.00
2019-01-30T06:10:16.165Z,74.12
2019-01-30T06:12:46.960Z,73.22
2019-01-30T06:15:17.902Z,72.76
2019-01-30T06:17:48.879Z,72.89
2019-01-30T06:20:22.279Z,72.79
2019-01-30T06:22:53.809Z,72.85
2019-01-30T06:25:24.907Z,72.57
2019-01-30T06:27:55.902Z,72.60
2019-01-30T06:30:26.590Z,72.38
2019-01-30T06:32:57.580Z,72.35
2019-01-30T06:35:28.642Z,70.70
2019-01-30T06:37:59.529Z,69.46
2019-01-30T06:40:32.800Z,70.78
2019-01-30T06:43:04.072Z,69.27
2019-01-30T06:45:34.601Z,69.29
2019-01-30T06:48:05.801Z,69.00
2019-01-30T06:50:36.452Z,69.66
2019-01-30T06:53:07.186Z,68.23
2019-01-30T06:55:37.821Z,68.25
2019-01-30T06:58:08.932Z,67.17
2019-01-30T07:00:39.594Z,68.19
2019-01-30T07:03:10.376Z,68.09
2019-01-30T07:05:40.909Z,67.84
2019-01-30T07:08:12.105Z,67.91
2019-01-30T07:10:42.641Z,68.38
2019-01-30T07:13:13.225Z,68.37
2019-01-30T07:15:44.004Z,68.72
2019-01-30T07:18:14.601Z,68.58
2019-01-30T07:20:45.352Z,68.94
2019-01-30T07:23:16.101Z,68.83
2019-01-30T07:25:47.031Z,69.14
2019-01-30T07:28:18.086Z,69.68
2019-01-30T07:30:49.125Z,69.67
2019-01-30T07:33:22.472Z,69.18
2019-01-30T07:35:53.360Z,68.96
2019-01-30T07:38:24.337Z,68.96
2019-01-30T07:40:55.212Z,69.09
2019-01-30T07:43:26.106Z,69.65
2019-01-30T07:45:57.103Z,70.05
2019-01-30T07:48:29.213Z,69.40
2019-01-30T07:51:00.092Z,69.89
2019-01-30T07:53:31.189Z,70.11
2019-01-30T07:56:02.097Z,70.26
2019-01-30T07:58:32.966Z,70.03
2019-01-30T08:01:03.855Z,70.49
2019-01-30T08:03:35.566Z,70.28
2019-01-30T08:06:06.719Z,70.34
2019-01-30T08:08:37.661Z,70.55
2019-01-30T08:11:08.444Z,70.71
2019-01-30T08:13:39.425Z,70.93
2019-01-30T08:16:10.302Z,70.98
2019-01-30T08:18:41.371Z,70.72
2019-01-30T08:21:11.995Z,70.79
2019-01-30T08:23:43.387Z,71.06
2019-01-30T08:26:14.746Z,70.84
2019-01-30T08:28:46.277Z,71.21
2019-01-30T08:31:17.180Z,71.28
2019-01-30T08:33:48.912Z,71.37
2019-01-30T08:36:19.879Z,71.44
2019-01-30T08:38:51.428Z,71.80
2019-01-30T08:41:22.368Z,71.79
2019-01-30T08:43:54.165Z,72.43
2019-01-30T08:46:25.063Z,72.08
2019-01-30T08:48:55.966Z,72.06
2019-01-30T08:51:26.638Z,71.56
2019-01-30T08:53:57.605Z,71.76
2019-01-30T08:56:28.512Z,71.68
2019-01-30T08:58:59.511Z,71.37
2019-01-30T09:01:30.532Z,71.33
2019-01-30T09:04:02.173Z,71.30
2019-01-30T09:06:32.983Z,71.15
2019-01-30T09:09:05.784Z,71.05
2019-01-30T09:11:36.867Z,71.12
2019-01-30T09:14:07.778Z,71.45
2019-01-30T09:16:38.678Z,71.71
2019-01-30T09:19:11.838Z,71.89
2019-01-30T09:21:42.706Z,72.02
2019-01-30T09:24:16.085Z,72.24
2019-01-30T09:26:45.901Z,71.75
2019-01-30T09:29:16.896Z,72.18
2019-01-30T09:31:47.904Z,72.03
2019-01-30T09:34:18.905Z,71.65
2019-01-30T09:36:49.884Z,71.62
2019-01-30T09:39:20.607Z,71.33
2019-01-30T09:41:51.541Z,70.99
2019-01-30T09:44:22.533Z,70.65
2019-01-30T09:46:53.432Z,70.58
2019-01-30T09:49:24.332Z,70.75
2019-01-30T09:51:55.221Z,71.32
2019-01-30T09:54:26.178Z,71.65
2019-01-30T09:56:56.971Z,71.76
2019-01-30T09:59:27.962Z,71.79
2019-01-30T10:01:59.882Z,71.51
2019-01-30T10:04:30.866Z,72.21
2019-01-30T10:07:01.742Z,73.05
2019-01-30T10:09:32.792Z,73.70
2019-01-30T10:12:03.637Z,74.32
2019-01-30T10:14:34.626Z,74.96
2019-01-30T10:17:05.720Z,75.22
2019-01-30T10:19:41.399Z,75.67
2019-01-30T10:22:10.460Z,75.65
2019-01-30T10:24:41.521Z,75.86
2019-01-30T10:27:12.424Z,75.45
2019-01-30T10:29:43.520Z,75.94
2019-01-30T10:32:14.421Z,75.31
2019-01-30T10:34:45.481Z,74.33
2019-01-30T10:37:16.497Z,73.76
2019-01-30T10:39:47.398Z,72.97
2019-01-30T10:42:18.390Z,72.17
2019-01-30T10:44:49.357Z,72.73
2019-01-30T10:47:20.143Z,72.01
2019-01-30T10:49:51.214Z,72.24
2019-01-30T10:52:22.041Z,71.57
2019-01-30T10:54:53.223Z,71.40
2019-01-30T10:57:24.223Z,71.69
2019-01-30T10:59:55.206Z,71.59
2019-01-30T11:02:26.190Z,72.60
2019-01-30T11:04:57.464Z,72.59
2019-01-30T11:07:28.280Z,72.54
2019-01-30T11:09:59.341Z,72.86
2019-01-30T11:12:30.245Z,73.36
2019-01-30T11:15:03.014Z,73.60
2019-01-30T11:17:33.876Z,73.87
2019-01-30T11:20:05.908Z,75.07
2019-01-30T11:22:36.784Z,76.05
2019-01-30T11:25:10.525Z,76.57
2019-01-30T11:27:41.423Z,76.58
2019-01-30T11:30:13.016Z,76.19
2019-01-30T11:32:43.996Z,76.64
2019-01-30T11:35:15.249Z,75.80
2019-01-30T11:37:46.308Z,75.89
2019-01-30T11:40:18.018Z,75.65
2019-01-30T11:42:48.902Z,75.36
2019-01-30T11:45:25.615Z,74.98
2019-01-30T11:47:56.509Z,75.03
2019-01-30T11:50:27.813Z,74.19
2019-01-30T11:52:58.733Z,74.57
2019-01-30T11:55:29.745Z,74.85
2019-01-30T11:58:00.657Z,75.17
2019-01-30T12:00:54.990Z,74.68
2019-01-30T12:03:25.897Z,74.87
2019-01-30T12:05:57.610Z,74.80
2019-01-30T12:08:28.487Z,74.95
2019-01-30T12:10:59.904Z,74.91
2019-01-30T12:13:30.836Z,74.98
2019-01-30T12:16:02.037Z,75.24
2019-01-30T12:18:34.250Z,75.24
2019-01-30T12:21:05.273Z,75.35
2019-01-30T12:23:36.164Z,75.50
2019-01-30T12:26:07.276Z,75.32
2019-01-30T12:28:38.154Z,74.75
2019-01-30T12:31:09.369Z,74.58
2019-01-30T12:33:40.132Z,74.76
2019-01-30T12:36:11.220Z,74.87
2019-01-30T12:38:42.008Z,74.58
2019-01-30T12:41:13.287Z,74.27
2019-01-30T12:43:45.350Z,74.38
2019-01-30T12:46:16.381Z,74.72
2019-01-30T12:48:48.906Z,74.65
2019-01-30T12:51:20.108Z,74.83
2019-01-30T12:53:51.414Z,75.10
2019-01-30T12:56:22.404Z,75.25
2019-01-30T12:58:53.311Z,75.17
2019-01-30T13:01:24.381Z,75.56
2019-01-30T13:03:55.176Z,75.96
2019-01-30T13:06:26.058Z,76.31
2019-01-30T13:08:56.840Z,75.99
2019-01-30T13:11:28.040Z,76.55
2019-01-30T13:13:58.943Z,76.42
2019-01-30T13:16:29.913Z,76.30
2019-01-30T13:19:00.824Z,76.47
2019-01-30T13:21:32.282Z,75.58
2019-01-30T13:24:03.101Z,75.41
2019-01-30T13:26:34.095Z,75.39
2019-01-30T13:29:05.062Z,74.37
2019-01-30T13:31:36.322Z,74.08
2019-01-30T13:34:07.572Z,73.75
2019-01-30T13:36:40.226Z,72.83
2019-01-30T13:39:11.293Z,72.00
2019-01-30T13:41:42.347Z,71.56
2019-01-30T13:44:13.278Z,71.52
2019-01-30T13:46:44.307Z,71.31
2019-01-30T13:49:15.154Z,70.76
2019-01-30T13:51:46.078Z,70.34
2019-01-30T13:54:16.925Z,70.14
2019-01-30T13:56:48.113Z,69.67
2019-01-30T13:59:19.107Z,69.34
2019-01-30T14:01:50.083Z,69.33
2019-01-30T14:04:21.094Z,69.75
2019-01-30T14:06:51.961Z,69.83
2019-01-30T14:09:22.954Z,69.51
2019-01-30T14:11:53.938Z,70.05
2019-01-30T14:14:24.844Z,70.39
2019-01-30T14:16:56.012Z,70.10
2019-01-30T14:19:26.940Z,70.21
2019-01-30T14:21:57.900Z,69.75
2019-01-30T14:24:28.689Z,70.10
2019-01-30T14:26:59.961Z,69.29
2019-01-30T14:29:30.889Z,69.65
2019-01-30T14:32:02.179Z,69.17
2019-01-30T14:34:32.984Z,68.83
2019-01-30T14:37:04.792Z,68.61
2019-01-30T14:39:35.554Z,67.67
2019-01-30T14:42:06.745Z,66.56
2019-01-30T14:44:37.624Z,66.53
2019-01-30T14:47:10.425Z,66.54
2019-01-30T14:49:41.062Z,66.87
2019-01-30T14:52:12.153Z,65.99
2019-01-30T14:54:42.921Z,66.40
2019-01-30T14:57:13.901Z,65.31
2019-01-30T14:59:45.039Z,64.61
2019-01-30T15:02:16.029Z,64.98
2019-01-30T15:04:46.792Z,65.26
2019-01-30T15:07:28.131Z,64.58
2019-01-30T15:09:50.397Z,64.70
2019-01-30T15:12:21.459Z,64.69
2019-01-30T15:14:52.317Z,64.69
2019-01-30T15:17:23.264Z,64.29
2019-01-30T15:19:54.265Z,63.96
2019-01-30T15:22:25.457Z,65.33
2019-01-30T15:24:56.234Z,64.65
2019-01-30T15:27:27.123Z,65.63
2019-01-30T15:29:58.016Z,64.74
2019-01-30T15:32:31.677Z,64.15
2019-01-30T15:35:01.543Z,64.57
2019-01-30T15:37:33.123Z,64.78
2019-01-30T15:40:04.944Z,65.23
2019-01-30T15:42:35.953Z,65.33
2019-01-30T15:45:10.056Z,64.43
2019-01-30T15:47:41.241Z,65.54
2019-01-30T15:50:32.672Z,63.29
2019-01-30T15:53:05.108Z,63.08
2019-01-30T15:55:37.221Z,62.78
2019-01-30T15:58:10.430Z,62.72
2019-01-30T16:00:46.979Z,62.82
2019-01-30T16:03:18.003Z,62.70
2019-01-30T16:05:49.068Z,62.42
2019-01-30T16:08:20.256Z,63.39
2019-01-30T16:10:51.116Z,63.35
2019-01-30T16:13:22.294Z,63.47
2019-01-30T16:15:58.856Z,63.66
2019-01-30T16:18:29.993Z,63.78
2019-01-30T16:21:00.924Z,64.09
2019-01-30T16:23:32.093Z,63.13
2019-01-30T16:26:03.015Z,63.21
2019-01-30T16:28:34.128Z,64.14
2019-01-30T16:31:05.104Z,63.99
2019-01-30T16:33:36.145Z,64.41
2019-01-30T16:36:06.973Z,63.81
2019-01-30T16:38:37.768Z,64.83
2019-01-30T16:41:08.312Z,65.48
2019-01-30T16:43:38.986Z,64.62
2019-01-30T16:46:09.625Z,64.63
2019-01-30T16:48:40.305Z,64.87
2019-01-30T16:51:10.937Z,65.05
2019-01-30T16:53:41.506Z,65.96
2019-01-30T16:56:12.145Z,64.87
2019-01-30T16:58:42.833Z,65.78
2019-01-30T17:01:13.678Z,66.29
2019-01-30T17:03:44.227Z,65.35
2019-01-30T17:06:15.150Z,65.77
2019-01-30T17:08:45.691Z,65.91
2019-01-30T17:11:16.224Z,66.79
2019-01-30T17:13:46.818Z,66.91
2019-01-30T17:16:17.358Z,66.30
2019-01-30T17:18:47.896Z,65.67
2019-01-30T17:21:18.772Z,66.61
2019-01-30T17:23:49.481Z,66.00
2019-01-30T17:26:20.159Z,65.90
2019-01-30T17:28:50.778Z,65.39
2019-01-30T17:31:24.722Z,65.60
2019-01-30T17:33:55.402Z,65.35
2019-01-30T17:36:25.989Z,65.25
2019-01-30T17:38:56.534Z,66.17
2019-01-30T17:41:27.505Z,66.52
2019-01-30T17:43:58.113Z,65.83
2019-01-30T17:46:28.703Z,66.50
2019-01-30T17:48:59.253Z,66.06
2019-01-30T17:51:29.933Z,66.74
2019-01-30T17:54:00.474Z,66.67
2019-01-30T17:56:31.175Z,66.81
2019-01-30T17:59:01.774Z,67.32
2019-01-30T18:01:32.467Z,67.91
2019-01-30T18:04:03.002Z,66.99
2019-01-30T18:06:33.721Z,67.31
2019-01-30T18:09:07.598Z,67.03
2019-01-30T18:11:38.653Z,66.70
2019-01-30T18:14:09.188Z,67.31
2019-01-30T18:16:40.177Z,67.09
2019-01-30T18:19:10.731Z,67.33
2019-01-30T18:21:41.355Z,66.05
2019-01-30T18:24:12.033Z,67.28
2019-01-30T18:26:42.639Z,67.63
2019-01-30T18:29:13.178Z,68.27
2019-01-30T18:31:43.774Z,69.13
2019-01-30T18:34:14.314Z,69.84
2019-01-30T18:36:45.665Z,70.54
2019-01-30T18:39:16.214Z,70.47
2019-01-30T18:41:46.816Z,71.38
2019-01-30T18:44:18.344Z,71.26
2019-01-30T18:46:49.027Z,71.93
2019-01-30T18:49:19.575Z,71.95
2019-01-30T18:51:50.286Z,72.17
2019-01-30T18:54:20.831Z,72.24
2019-01-30T18:56:51.441Z,72.22
2019-01-30T18:59:21.996Z,71.97
2019-01-30T19:01:52.631Z,72.43
2019-01-30T19:04:23.179Z,72.09
2019-01-30T19:06:54.190Z,72.77
2019-01-30T19:09:24.887Z,72.61
2019-01-30T19:11:55.569Z,72.90
2019-01-30T19:14:26.116Z,72.91
2019-01-30T19:16:56.718Z,72.88
2019-01-30T19:19:27.263Z,72.89
2019-01-30T19:21:57.855Z,73.41
2019-01-30T19:24:28.453Z,72.72
2019-01-30T19:26:59.115Z,72.99
2019-01-30T19:29:29.664Z,73.10
2019-01-30T19:32:00.343Z,72.60
2019-01-30T19:34:30.908Z,73.02
2019-01-30T19:37:03.526Z,72.69
2019-01-30T19:39:33.750Z,73.08
2019-01-30T19:42:04.614Z,72.95
2019-01-30T19:44:35.563Z,72.65
2019-01-30T19:47:06.698Z,72.88
2019-01-30T19:49:37.318Z,73.48
2019-01-30T19:52:08.224Z,73.73
2019-01-30T19:54:38.762Z,73.03
2019-01-30T19:57:09.647Z,72.59
2019-01-30T19:59:40.189Z,73.45
2019-01-30T20:02:10.983Z,73.21
2019-01-30T20:04:41.714Z,73.17
2019-01-30T20:07:14.913Z,73.28
2019-01-30T20:09:45.036Z,73.70
2019-01-30T20:12:15.879Z,72.85
2019-01-30T20:14:46.422Z,72.94
2019-01-30T20:17:18.101Z,73.30
2019-01-30T20:19:48.641Z,73.27
2019-01-30T20:22:19.578Z,73.61
2019-01-30T20:24:50.173Z,73.26
2019-01-30T20:27:20.869Z,73.41
2019-01-30T20:29:51.417Z,73.67
2019-01-30T20:32:22.105Z,74.24
2019-01-30T20:34:52.644Z,73.85
2019-01-30T20:37:26.234Z,74.65
2019-01-30T20:39:55.569Z,74.46
2019-01-30T20:42:26.179Z,74.65
2019-01-30T20:44:56.712Z,74.48
2019-01-30T20:47:27.394Z,73.80
2019-01-30T20:49:58.930Z,74.18
2019-01-30T20:52:29.532Z,74.61
2019-01-30T20:55:00.331Z,74.68
2019-01-30T20:57:31.081Z,74.04
2019-01-30T21:00:02.155Z,74.13
2019-01-30T21:02:33.968Z,74.58
2019-01-30T21:05:05.010Z,74.37
2019-01-30T21:07:37.338Z,74.42
2019-01-30T21:10:10.479Z,72.23
2019-01-30T21:12:41.064Z,73.82
2019-01-30T21:15:13.361Z,73.04
2019-01-30T21:17:44.187Z,73.18
2019-01-30T21:20:16.625Z,71.47
2019-01-30T21:22:47.301Z,71.96
2019-01-30T21:25:19.796Z,73.12
2019-01-30T21:27:50.518Z,71.87
2019-01-30T21:30:27.041Z,72.27
2019-01-30T21:32:57.706Z,73.58
2019-01-30T21:35:28.236Z,73.98
2019-01-30T21:37:58.967Z,74.26
2019-01-30T21:40:29.449Z,74.56
2019-01-30T21:43:00.045Z,75.01
2019-01-30T21:45:30.597Z,73.90
2019-01-30T21:48:01.203Z,74.16
2019-01-30T21:50:31.940Z,74.61
2019-01-30T21:53:02.585Z,74.97
2019-01-30T21:55:33.114Z,75.25
2019-01-30T21:58:03.989Z,74.92
2019-01-30T22:00:34.730Z,74.59
2019-01-30T22:03:05.932Z,74.21
2019-01-30T22:05:36.465Z,74.73
2019-01-30T22:08:07.353Z,74.78
2019-01-30T22:10:37.969Z,74.55
2019-01-30T22:13:09.482Z,74.30
2019-01-30T22:15:40.008Z,73.82
2019-01-30T22:18:10.602Z,74.42
2019-01-30T22:20:41.137Z,74.45
2019-01-30T22:23:11.734Z,74.76
2019-01-30T22:25:42.322Z,74.67
2019-01-30T22:28:13.267Z,74.54
2019-01-30T22:30:43.798Z,74.82
2019-01-30T22:33:14.395Z,74.67
2019-01-30T22:35:44.924Z,74.29
2019-01-30T22:38:15.526Z,74.89
2019-01-30T22:40:46.055Z,75.41
2019-01-30T22:43:16.654Z,75.56
2019-01-30T22:45:47.194Z,74.74
2019-01-30T22:48:17.804Z,74.99
2019-01-30T22:50:48.336Z,74.21
2019-01-30T22:53:19.032Z,74.54
2019-01-30T22:55:49.587Z,74.08
2019-01-30T22:58:20.641Z,74.58
2019-01-30T23:01:32.777Z,74.95
2019-01-30T23:04:45.779Z,74.94
2019-01-30T23:07:56.004Z,74.71
2019-01-30T23:11:09.022Z,74.85
2019-01-30T23:14:09.587Z,75.12
2019-01-30T23:17:16.087Z,74.74
2019-01-30T23:20:07.877Z,74.90
2019-01-30T23:23:25.757Z,74.39
2019-01-30T23:26:20.002Z,74.66
2019-01-30T23:29:40.242Z,74.80
2019-01-30T23:32:45.550Z,74.55
2019-01-30T23:35:48.960Z,74.47
2019-01-30T23:39:15.450Z,75.01
2019-01-30T23:42:27.333Z,74.80
2019-01-30T23:45:23.213Z,74.78
2019-01-30T23:48:40.713Z,74.37
2019-01-30T23:51:51.914Z,73.77
2019-01-30T23:55:05.646Z,74.50
2019-01-30T23:58:30.970Z,73.79
